sensor_id;sensor_type;location;lat;lon;timestamp;temperature;humidity
13322;DHT22;6730;46.248;6.930;2023-10-19T00:00:47;15.40;99.90
13322;DHT22;6730;46.248;6.930;2023-10-19T00:03:19;15.40;99.90
13322;DHT22;6730;46.248;6.930;2023-10-19T00:05:45;15.30;99.90
13322;DHT22;6730;46.248;6.930;2023-10-19T00:08:12;15.30;99.90
13322;DHT22;6730;46.248;6.930;2023-10-19T00:10:39;15.40;99.90
13322;DHT22;6730;46.248;6.930;2023-10-19T00:13:08;15.60;99.90
13322;DHT22;6730;46.248;6.930;2023-10-19T00:15:35;15.70;99.90
13322;DHT22;6730;46.248;6.930;2023-10-19T00:18:06;15.70;99.90
13322;DHT22;6730;46.248;6.930;2023-10-19T00:20:46;15.80;99.90
13322;DHT22;6730;46.248;6.930;2023-10-19T00:23:22;15.80;99.90
13322;DHT22;6730;46.248;6.930;2023-10-19T00:26:03;15.50;99.90
13322;DHT22;6730;46.248;6.930;2023-10-19T00:28:40;15.30;99.90
13322;DHT22;6730;46.248;6.930;2023-10-19T00:31:06;15.20;99.90
13322;DHT22;6730;46.248;6.930;2023-10-19T00:33:36;15.20;99.90
13322;DHT22;6730;46.248;6.930;2023-10-19T00:36:07;14.70;99.90
13322;DHT22;6730;46.248;6.930;2023-10-19T00:38:38;14.70;99.90
13322;DHT22;6730;46.248;6.930;2023-10-19T00:41:23;15.00;99.90
13322;DHT22;6730;46.248;6.930;2023-10-19T00:44:02;15.00;99.90
13322;DHT22;6730;46.248;6.930;2023-10-19T00:46:36;14.40;99.90
13322;DHT22;6730;46.248;6.930;2023-10-19T00:49:05;14.70;99.90
13322;DHT22;6730;46.248;6.930;2023-10-19T00:51:39;14.90;99.90
13322;DHT22;6730;46.248;6.930;2023-10-19T00:54:10;15.20;99.90
13322;DHT22;6730;46.248;6.930;2023-10-19T00:56:43;15.30;99.90
13322;DHT22;6730;46.248;6.930;2023-10-19T00:59:18;15.30;99.90
13322;DHT22;6730;46.248;6.930;2023-10-19T01:01:53;15.40;99.90
13322;DHT22;6730;46.248;6.930;2023-10-19T01:04:30;15.60;99.90
13322;DHT22;6730;46.248;6.930;2023-10-19T01:07:00;15.60;99.90
13322;DHT22;6730;46.248;6.930;2023-10-19T01:09:41;15.60;99.90
13322;DHT22;6730;46.248;6.930;2023-10-19T01:12:09;15.80;99.90
13322;DHT22;6730;46.248;6.930;2023-10-19T01:17:45;15.80;99.90
13322;DHT22;6730;46.248;6.930;2023-10-19T01:20:25;15.70;99.90
13322;DHT22;6730;46.248;6.930;2023-10-19T01:23:02;15.80;99.90
13322;DHT22;6730;46.248;6.930;2023-10-19T01:28:16;16.00;99.90
13322;DHT22;6730;46.248;6.930;2023-10-19T01:30:43;15.90;99.90
13322;DHT22;6730;46.248;6.930;2023-10-19T01:33:17;15.90;99.90
13322;DHT22;6730;46.248;6.930;2023-10-19T01:35:46;16.00;99.90
13322;DHT22;6730;46.248;6.930;2023-10-19T01:38:30;16.00;99.90
13322;DHT22;6730;46.248;6.930;2023-10-19T01:41:04;16.10;99.90
13322;DHT22;6730;46.248;6.930;2023-10-19T01:43:43;16.10;99.90
13322;DHT22;6730;46.248;6.930;2023-10-19T01:46:09;16.00;99.90
13322;DHT22;6730;46.248;6.930;2023-10-19T01:48:39;16.10;99.90
13322;DHT22;6730;46.248;6.930;2023-10-19T01:51:07;15.80;99.90
13322;DHT22;6730;46.248;6.930;2023-10-19T01:53:36;15.80;99.90
13322;DHT22;6730;46.248;6.930;2023-10-19T01:56:05;15.90;99.90
13322;DHT22;6730;46.248;6.930;2023-10-19T01:58:44;16.00;99.90
13322;DHT22;6730;46.248;6.930;2023-10-19T02:01:16;16.00;99.90
13322;DHT22;6730;46.248;6.930;2023-10-19T02:04:02;16.20;99.90
13322;DHT22;6730;46.248;6.930;2023-10-19T02:06:30;16.30;99.90
13322;DHT22;6730;46.248;6.930;2023-10-19T02:09:04;16.00;99.90
13322;DHT22;6730;46.248;6.930;2023-10-19T02:11:52;15.70;99.90
13322;DHT22;6730;46.248;6.930;2023-10-19T02:14:22;15.20;99.90
13322;DHT22;6730;46.248;6.930;2023-10-19T02:16:50;15.30;99.90
13322;DHT22;6730;46.248;6.930;2023-10-19T02:19:20;15.50;99.90
13322;DHT22;6730;46.248;6.930;2023-10-19T02:21:55;15.40;99.90
13322;DHT22;6730;46.248;6.930;2023-10-19T02:24:22;15.60;99.90
13322;DHT22;6730;46.248;6.930;2023-10-19T02:26:53;15.60;99.90
13322;DHT22;6730;46.248;6.930;2023-10-19T02:29:20;15.50;99.90
13322;DHT22;6730;46.248;6.930;2023-10-19T02:31:47;15.80;99.90
13322;DHT22;6730;46.248;6.930;2023-10-19T02:34:13;15.80;99.90
13322;DHT22;6730;46.248;6.930;2023-10-19T02:36:43;15.70;99.90
13322;DHT22;6730;46.248;6.930;2023-10-19T02:39:11;15.70;99.90
13322;DHT22;6730;46.248;6.930;2023-10-19T02:41:45;15.90;99.90
13322;DHT22;6730;46.248;6.930;2023-10-19T02:46:54;15.70;99.90
13322;DHT22;6730;46.248;6.930;2023-10-19T02:49:34;15.70;99.90
13322;DHT22;6730;46.248;6.930;2023-10-19T02:52:04;15.80;99.90
13322;DHT22;6730;46.248;6.930;2023-10-19T02:54:31;15.80;99.90
13322;DHT22;6730;46.248;6.930;2023-10-19T02:57:00;15.80;99.90
13322;DHT22;6730;46.248;6.930;2023-10-19T02:59:26;15.50;99.90
13322;DHT22;6730;46.248;6.930;2023-10-19T03:01:59;15.20;99.90
13322;DHT22;6730;46.248;6.930;2023-10-19T03:04:33;15.00;99.90
13322;DHT22;6730;46.248;6.930;2023-10-19T03:07:04;14.90;99.90
13322;DHT22;6730;46.248;6.930;2023-10-19T03:09:31;14.80;99.90
13322;DHT22;6730;46.248;6.930;2023-10-19T03:12:02;14.80;99.90
13322;DHT22;6730;46.248;6.930;2023-10-19T03:14:31;14.80;99.90
13322;DHT22;6730;46.248;6.930;2023-10-19T03:16:58;15.10;99.90
13322;DHT22;6730;46.248;6.930;2023-10-19T03:19:25;15.30;99.90
13322;DHT22;6730;46.248;6.930;2023-10-19T03:21:51;15.40;99.90
13322;DHT22;6730;46.248;6.930;2023-10-19T03:24:18;15.30;99.90
13322;DHT22;6730;46.248;6.930;2023-10-19T03:27:04;15.30;99.90
13322;DHT22;6730;46.248;6.930;2023-10-19T03:29:50;15.10;99.90
13322;DHT22;6730;46.248;6.930;2023-10-19T03:32:24;15.00;99.90
13322;DHT22;6730;46.248;6.930;2023-10-19T03:34:55;15.00;99.90
13322;DHT22;6730;46.248;6.930;2023-10-19T03:37:22;15.10;99.90
13322;DHT22;6730;46.248;6.930;2023-10-19T03:39:50;14.80;99.90
13322;DHT22;6730;46.248;6.930;2023-10-19T03:42:16;14.70;99.90
13322;DHT22;6730;46.248;6.930;2023-10-19T03:44:42;14.80;99.90
13322;DHT22;6730;46.248;6.930;2023-10-19T03:47:08;14.80;99.90
13322;DHT22;6730;46.248;6.930;2023-10-19T03:49:38;14.90;99.90
13322;DHT22;6730;46.248;6.930;2023-10-19T03:52:07;15.00;99.90
13322;DHT22;6730;46.248;6.930;2023-10-19T03:54:36;15.10;99.90
13322;DHT22;6730;46.248;6.930;2023-10-19T03:57:05;15.10;99.90
13322;DHT22;6730;46.248;6.930;2023-10-19T03:59:35;15.10;99.90
13322;DHT22;6730;46.248;6.930;2023-10-19T04:02:03;15.20;99.90
13322;DHT22;6730;46.248;6.930;2023-10-19T04:04:35;15.30;99.90
13322;DHT22;6730;46.248;6.930;2023-10-19T04:07:00;15.30;99.90
13322;DHT22;6730;46.248;6.930;2023-10-19T04:09:36;15.30;99.90
13322;DHT22;6730;46.248;6.930;2023-10-19T04:12:14;15.20;99.90
13322;DHT22;6730;46.248;6.930;2023-10-19T04:14:42;15.20;99.90
13322;DHT22;6730;46.248;6.930;2023-10-19T04:17:11;15.30;99.90
13322;DHT22;6730;46.248;6.930;2023-10-19T04:19:38;15.50;99.90
13322;DHT22;6730;46.248;6.930;2023-10-19T04:22:07;15.70;99.90
13322;DHT22;6730;46.248;6.930;2023-10-19T04:24:36;15.70;99.90
13322;DHT22;6730;46.248;6.930;2023-10-19T04:27:02;15.70;99.90
13322;DHT22;6730;46.248;6.930;2023-10-19T04:29:29;15.40;99.90
13322;DHT22;6730;46.248;6.930;2023-10-19T04:31:54;15.40;99.90
13322;DHT22;6730;46.248;6.930;2023-10-19T04:34:20;15.30;99.90
13322;DHT22;6730;46.248;6.930;2023-10-19T04:36:48;15.20;99.90
13322;DHT22;6730;46.248;6.930;2023-10-19T04:39:13;15.30;99.90
13322;DHT22;6730;46.248;6.930;2023-10-19T04:41:40;15.20;99.90
13322;DHT22;6730;46.248;6.930;2023-10-19T04:44:06;15.10;99.90
13322;DHT22;6730;46.248;6.930;2023-10-19T04:46:34;15.00;99.90
13322;DHT22;6730;46.248;6.930;2023-10-19T04:49:00;14.90;99.90
13322;DHT22;6730;46.248;6.930;2023-10-19T04:51:26;14.90;99.90
13322;DHT22;6730;46.248;6.930;2023-10-19T04:53:52;14.80;99.90
13322;DHT22;6730;46.248;6.930;2023-10-19T04:56:17;14.70;99.90
13322;DHT22;6730;46.248;6.930;2023-10-19T04:58:43;15.00;99.90
13322;DHT22;6730;46.248;6.930;2023-10-19T05:01:09;15.00;99.90
13322;DHT22;6730;46.248;6.930;2023-10-19T05:03:37;14.90;99.90
13322;DHT22;6730;46.248;6.930;2023-10-19T05:06:03;15.00;99.90
13322;DHT22;6730;46.248;6.930;2023-10-19T05:08:29;15.00;99.90
13322;DHT22;6730;46.248;6.930;2023-10-19T05:10:55;15.20;99.90
13322;DHT22;6730;46.248;6.930;2023-10-19T05:13:25;15.30;99.90
13322;DHT22;6730;46.248;6.930;2023-10-19T05:15:52;15.30;99.90
13322;DHT22;6730;46.248;6.930;2023-10-19T05:18:19;15.30;99.90
13322;DHT22;6730;46.248;6.930;2023-10-19T05:20:45;15.50;99.90
13322;DHT22;6730;46.248;6.930;2023-10-19T05:23:11;15.50;99.90
13322;DHT22;6730;46.248;6.930;2023-10-19T05:25:39;15.40;99.90
13322;DHT22;6730;46.248;6.930;2023-10-19T05:28:05;15.30;99.90
13322;DHT22;6730;46.248;6.930;2023-10-19T05:30:32;15.30;99.90
13322;DHT22;6730;46.248;6.930;2023-10-19T05:32:59;15.10;99.90
13322;DHT22;6730;46.248;6.930;2023-10-19T05:35:25;14.90;99.90
13322;DHT22;6730;46.248;6.930;2023-10-19T05:37:55;14.90;99.90
13322;DHT22;6730;46.248;6.930;2023-10-19T05:40:23;14.90;99.90
13322;DHT22;6730;46.248;6.930;2023-10-19T05:42:49;14.90;99.90
13322;DHT22;6730;46.248;6.930;2023-10-19T05:45:15;14.90;99.90
13322;DHT22;6730;46.248;6.930;2023-10-19T05:47:46;14.90;99.90
13322;DHT22;6730;46.248;6.930;2023-10-19T05:50:12;14.90;99.90
13322;DHT22;6730;46.248;6.930;2023-10-19T05:52:41;15.00;99.90
13322;DHT22;6730;46.248;6.930;2023-10-19T05:55:08;15.20;99.90
13322;DHT22;6730;46.248;6.930;2023-10-19T05:57:34;15.40;99.90
13322;DHT22;6730;46.248;6.930;2023-10-19T06:00:01;15.50;99.90
13322;DHT22;6730;46.248;6.930;2023-10-19T06:02:27;15.50;99.90
13322;DHT22;6730;46.248;6.930;2023-10-19T06:04:52;15.50;99.90
13322;DHT22;6730;46.248;6.930;2023-10-19T06:07:18;15.40;99.90
13322;DHT22;6730;46.248;6.930;2023-10-19T06:09:43;15.50;99.90
13322;DHT22;6730;46.248;6.930;2023-10-19T06:12:09;15.60;99.90
13322;DHT22;6730;46.248;6.930;2023-10-19T06:14:35;15.50;99.90
13322;DHT22;6730;46.248;6.930;2023-10-19T06:17:00;15.30;99.90
13322;DHT22;6730;46.248;6.930;2023-10-19T06:19:27;15.30;99.90
13322;DHT22;6730;46.248;6.930;2023-10-19T06:21:52;15.30;99.90
13322;DHT22;6730;46.248;6.930;2023-10-19T06:24:18;15.10;99.90
13322;DHT22;6730;46.248;6.930;2023-10-19T06:26:44;15.00;99.90
13322;DHT22;6730;46.248;6.930;2023-10-19T06:29:10;14.90;99.90
13322;DHT22;6730;46.248;6.930;2023-10-19T06:31:36;14.80;99.90
13322;DHT22;6730;46.248;6.930;2023-10-19T06:34:02;14.70;99.90
13322;DHT22;6730;46.248;6.930;2023-10-19T06:36:28;14.80;99.90
13322;DHT22;6730;46.248;6.930;2023-10-19T06:38:57;14.90;99.90
13322;DHT22;6730;46.248;6.930;2023-10-19T06:41:23;15.00;99.90
13322;DHT22;6730;46.248;6.930;2023-10-19T06:43:49;15.40;99.90
13322;DHT22;6730;46.248;6.930;2023-10-19T06:46:15;15.60;99.90
13322;DHT22;6730;46.248;6.930;2023-10-19T06:48:41;15.60;99.90
13322;DHT22;6730;46.248;6.930;2023-10-19T06:51:08;15.80;99.90
13322;DHT22;6730;46.248;6.930;2023-10-19T06:53:34;15.90;99.90
13322;DHT22;6730;46.248;6.930;2023-10-19T06:56:00;15.90;99.90
13322;DHT22;6730;46.248;6.930;2023-10-19T06:58:26;15.90;99.90
13322;DHT22;6730;46.248;6.930;2023-10-19T07:00:53;15.90;99.90
13322;DHT22;6730;46.248;6.930;2023-10-19T07:03:22;16.00;99.90
13322;DHT22;6730;46.248;6.930;2023-10-19T07:05:48;15.90;99.90
13322;DHT22;6730;46.248;6.930;2023-10-19T07:08:15;15.90;99.90
13322;DHT22;6730;46.248;6.930;2023-10-19T07:10:41;15.90;99.90
13322;DHT22;6730;46.248;6.930;2023-10-19T07:13:08;16.10;99.90
13322;DHT22;6730;46.248;6.930;2023-10-19T07:15:34;16.40;99.90
13322;DHT22;6730;46.248;6.930;2023-10-19T07:17:59;16.60;99.90
13322;DHT22;6730;46.248;6.930;2023-10-19T07:20:25;17.00;99.90
13322;DHT22;6730;46.248;6.930;2023-10-19T07:22:56;17.20;99.90
13322;DHT22;6730;46.248;6.930;2023-10-19T07:25:23;17.30;99.90
13322;DHT22;6730;46.248;6.930;2023-10-19T07:27:52;17.40;99.90
13322;DHT22;6730;46.248;6.930;2023-10-19T07:30:24;17.60;99.90
13322;DHT22;6730;46.248;6.930;2023-10-19T07:32:52;17.70;99.90
13322;DHT22;6730;46.248;6.930;2023-10-19T07:35:24;18.30;99.90
13322;DHT22;6730;46.248;6.930;2023-10-19T07:37:52;18.90;99.90
13322;DHT22;6730;46.248;6.930;2023-10-19T07:40:18;18.90;99.90
13322;DHT22;6730;46.248;6.930;2023-10-19T07:42:45;19.50;99.90
13322;DHT22;6730;46.248;6.930;2023-10-19T07:45:12;20.30;99.90
13322;DHT22;6730;46.248;6.930;2023-10-19T07:47:38;20.60;99.90
13322;DHT22;6730;46.248;6.930;2023-10-19T07:50:11;20.60;99.90
13322;DHT22;6730;46.248;6.930;2023-10-19T07:52:49;19.90;99.90
13322;DHT22;6730;46.248;6.930;2023-10-19T07:55:16;19.70;99.90
13322;DHT22;6730;46.248;6.930;2023-10-19T07:57:42;20.10;99.90
13322;DHT22;6730;46.248;6.930;2023-10-19T08:00:09;20.80;99.90
13322;DHT22;6730;46.248;6.930;2023-10-19T08:02:36;20.70;99.90
13322;DHT22;6730;46.248;6.930;2023-10-19T08:05:04;19.90;99.90
13322;DHT22;6730;46.248;6.930;2023-10-19T08:07:32;20.30;99.90
13322;DHT22;6730;46.248;6.930;2023-10-19T08:09:59;20.10;99.90
13322;DHT22;6730;46.248;6.930;2023-10-19T08:12:26;19.10;99.90
13322;DHT22;6730;46.248;6.930;2023-10-19T08:14:54;18.40;99.90
13322;DHT22;6730;46.248;6.930;2023-10-19T08:17:21;18.10;99.90
13322;DHT22;6730;46.248;6.930;2023-10-19T08:19:47;18.10;99.90
13322;DHT22;6730;46.248;6.930;2023-10-19T08:22:13;17.90;99.90
13322;DHT22;6730;46.248;6.930;2023-10-19T08:24:40;17.80;99.90
13322;DHT22;6730;46.248;6.930;2023-10-19T08:27:09;18.20;99.90
13322;DHT22;6730;46.248;6.930;2023-10-19T08:29:36;18.90;99.90
13322;DHT22;6730;46.248;6.930;2023-10-19T08:32:02;19.80;99.90
13322;DHT22;6730;46.248;6.930;2023-10-19T08:34:34;20.50;99.90
13322;DHT22;6730;46.248;6.930;2023-10-19T08:37:01;21.10;99.90
13322;DHT22;6730;46.248;6.930;2023-10-19T08:39:28;20.60;99.90
13322;DHT22;6730;46.248;6.930;2023-10-19T08:42:04;20.10;99.90
13322;DHT22;6730;46.248;6.930;2023-10-19T08:44:31;20.40;99.90
13322;DHT22;6730;46.248;6.930;2023-10-19T08:46:59;21.40;99.90
13322;DHT22;6730;46.248;6.930;2023-10-19T08:49:25;21.70;99.90
13322;DHT22;6730;46.248;6.930;2023-10-19T08:51:54;20.60;99.90
13322;DHT22;6730;46.248;6.930;2023-10-19T08:54:21;20.00;99.90
13322;DHT22;6730;46.248;6.930;2023-10-19T08:56:47;19.40;99.90
13322;DHT22;6730;46.248;6.930;2023-10-19T08:59:13;19.00;99.90
13322;DHT22;6730;46.248;6.930;2023-10-19T09:01:41;18.80;99.90
13322;DHT22;6730;46.248;6.930;2023-10-19T09:04:13;18.40;99.90
13322;DHT22;6730;46.248;6.930;2023-10-19T09:06:40;18.00;99.90
13322;DHT22;6730;46.248;6.930;2023-10-19T09:09:12;17.70;99.90
13322;DHT22;6730;46.248;6.930;2023-10-19T09:11:51;17.50;99.90
13322;DHT22;6730;46.248;6.930;2023-10-19T09:14:33;17.20;99.90
13322;DHT22;6730;46.248;6.930;2023-10-19T09:17:01;17.10;99.90
13322;DHT22;6730;46.248;6.930;2023-10-19T09:19:39;17.30;99.90
13322;DHT22;6730;46.248;6.930;2023-10-19T09:22:06;17.60;99.90
13322;DHT22;6730;46.248;6.930;2023-10-19T09:24:48;17.70;99.90
13322;DHT22;6730;46.248;6.930;2023-10-19T09:27:17;18.30;99.90
13322;DHT22;6730;46.248;6.930;2023-10-19T09:29:43;18.90;99.90
13322;DHT22;6730;46.248;6.930;2023-10-19T09:32:09;19.30;99.90
13322;DHT22;6730;46.248;6.930;2023-10-19T09:34:36;19.40;99.90
13322;DHT22;6730;46.248;6.930;2023-10-19T09:37:02;19.00;99.90
13322;DHT22;6730;46.248;6.930;2023-10-19T09:39:31;18.10;99.90
13322;DHT22;6730;46.248;6.930;2023-10-19T09:42:06;17.90;99.90
13322;DHT22;6730;46.248;6.930;2023-10-19T09:44:48;17.40;99.90
13322;DHT22;6730;46.248;6.930;2023-10-19T09:47:35;17.00;99.90
13322;DHT22;6730;46.248;6.930;2023-10-19T09:50:03;16.80;99.90
13322;DHT22;6730;46.248;6.930;2023-10-19T09:52:33;17.00;99.90
13322;DHT22;6730;46.248;6.930;2023-10-19T09:55:19;17.60;99.90
13322;DHT22;6730;46.248;6.930;2023-10-19T09:58:31;17.60;99.90
13322;DHT22;6730;46.248;6.930;2023-10-19T10:01:00;17.00;99.90
13322;DHT22;6730;46.248;6.930;2023-10-19T10:03:50;16.70;99.90
13322;DHT22;6730;46.248;6.930;2023-10-19T10:06:26;17.20;99.90
13322;DHT22;6730;46.248;6.930;2023-10-19T10:08:52;17.50;99.90
13322;DHT22;6730;46.248;6.930;2023-10-19T10:11:24;17.60;99.90
13322;DHT22;6730;46.248;6.930;2023-10-19T10:13:52;17.80;99.90
13322;DHT22;6730;46.248;6.930;2023-10-19T10:16:25;18.20;99.90
13322;DHT22;6730;46.248;6.930;2023-10-19T10:18:58;18.50;99.90
13322;DHT22;6730;46.248;6.930;2023-10-19T10:21:25;19.40;99.90
13322;DHT22;6730;46.248;6.930;2023-10-19T10:23:58;20.10;99.90
13322;DHT22;6730;46.248;6.930;2023-10-19T10:26:29;19.90;99.90
13322;DHT22;6730;46.248;6.930;2023-10-19T10:29:12;20.40;99.90
13322;DHT22;6730;46.248;6.930;2023-10-19T10:31:49;21.10;99.90
13322;DHT22;6730;46.248;6.930;2023-10-19T10:37:04;21.60;99.90
13322;DHT22;6730;46.248;6.930;2023-10-19T10:39:31;21.30;99.90
13322;DHT22;6730;46.248;6.930;2023-10-19T10:42:03;20.80;99.90
13322;DHT22;6730;46.248;6.930;2023-10-19T10:44:36;20.20;99.90
13322;DHT22;6730;46.248;6.930;2023-10-19T10:47:18;20.00;99.90
13322;DHT22;6730;46.248;6.930;2023-10-19T10:49:57;19.90;99.90
13322;DHT22;6730;46.248;6.930;2023-10-19T10:52:43;19.90;99.90
13322;DHT22;6730;46.248;6.930;2023-10-19T10:55:13;18.70;99.90
13322;DHT22;6730;46.248;6.930;2023-10-19T10:57:43;18.60;99.90
13322;DHT22;6730;46.248;6.930;2023-10-19T11:00:15;18.70;99.90
13322;DHT22;6730;46.248;6.930;2023-10-19T11:02:42;18.50;99.90
13322;DHT22;6730;46.248;6.930;2023-10-19T11:05:13;18.10;99.90
13322;DHT22;6730;46.248;6.930;2023-10-19T11:07:40;17.90;99.90
13322;DHT22;6730;46.248;6.930;2023-10-19T11:10:06;17.70;99.90
13322;DHT22;6730;46.248;6.930;2023-10-19T11:12:32;17.90;99.90
13322;DHT22;6730;46.248;6.930;2023-10-19T11:14:59;18.10;99.90
13322;DHT22;6730;46.248;6.930;2023-10-19T11:17:26;18.00;99.90
13322;DHT22;6730;46.248;6.930;2023-10-19T11:19:56;17.90;99.90
13322;DHT22;6730;46.248;6.930;2023-10-19T11:22:23;18.10;99.90
13322;DHT22;6730;46.248;6.930;2023-10-19T11:24:55;18.20;99.90
13322;DHT22;6730;46.248;6.930;2023-10-19T11:27:25;17.80;99.90
13322;DHT22;6730;46.248;6.930;2023-10-19T11:29:58;17.70;99.90
13322;DHT22;6730;46.248;6.930;2023-10-19T11:32:36;17.80;99.90
13322;DHT22;6730;46.248;6.930;2023-10-19T11:35:03;17.70;99.90
13322;DHT22;6730;46.248;6.930;2023-10-19T11:37:29;17.70;99.90
13322;DHT22;6730;46.248;6.930;2023-10-19T11:39:55;17.60;99.90
13322;DHT22;6730;46.248;6.930;2023-10-19T11:42:21;17.30;99.90
13322;DHT22;6730;46.248;6.930;2023-10-19T11:44:46;17.10;99.90
13322;DHT22;6730;46.248;6.930;2023-10-19T11:47:12;17.40;99.90
13322;DHT22;6730;46.248;6.930;2023-10-19T11:49:40;17.80;99.90
13322;DHT22;6730;46.248;6.930;2023-10-19T11:52:06;17.90;99.90
13322;DHT22;6730;46.248;6.930;2023-10-19T11:54:33;18.10;99.90
13322;DHT22;6730;46.248;6.930;2023-10-19T11:56:59;18.30;99.90
13322;DHT22;6730;46.248;6.930;2023-10-19T11:59:25;18.30;99.90
13322;DHT22;6730;46.248;6.930;2023-10-19T12:01:52;18.70;99.90
13322;DHT22;6730;46.248;6.930;2023-10-19T12:04:17;18.70;99.90
13322;DHT22;6730;46.248;6.930;2023-10-19T12:06:43;18.10;99.90
13322;DHT22;6730;46.248;6.930;2023-10-19T12:09:11;17.60;99.90
13322;DHT22;6730;46.248;6.930;2023-10-19T12:11:41;17.30;99.90
13322;DHT22;6730;46.248;6.930;2023-10-19T12:14:07;17.10;99.90
13322;DHT22;6730;46.248;6.930;2023-10-19T12:16:37;16.80;99.90
13322;DHT22;6730;46.248;6.930;2023-10-19T12:19:04;16.70;99.90
13322;DHT22;6730;46.248;6.930;2023-10-19T12:21:30;16.80;99.90
13322;DHT22;6730;46.248;6.930;2023-10-19T12:23:56;17.00;99.90
13322;DHT22;6730;46.248;6.930;2023-10-19T12:26:24;16.80;99.90
13322;DHT22;6730;46.248;6.930;2023-10-19T12:28:50;16.80;99.90
13322;DHT22;6730;46.248;6.930;2023-10-19T12:31:16;16.80;99.90
13322;DHT22;6730;46.248;6.930;2023-10-19T12:33:44;17.10;99.90
13322;DHT22;6730;46.248;6.930;2023-10-19T12:36:10;17.20;99.90
13322;DHT22;6730;46.248;6.930;2023-10-19T12:38:51;17.20;99.90
13322;DHT22;6730;46.248;6.930;2023-10-19T12:41:18;17.40;99.90
13322;DHT22;6730;46.248;6.930;2023-10-19T12:43:44;17.40;99.90
13322;DHT22;6730;46.248;6.930;2023-10-19T12:46:11;17.60;99.90
13322;DHT22;6730;46.248;6.930;2023-10-19T12:48:42;17.50;99.90
13322;DHT22;6730;46.248;6.930;2023-10-19T12:51:08;17.70;99.90
13322;DHT22;6730;46.248;6.930;2023-10-19T12:53:34;18.10;99.90
13322;DHT22;6730;46.248;6.930;2023-10-19T12:56:00;18.40;99.90
13322;DHT22;6730;46.248;6.930;2023-10-19T12:58:26;18.40;99.90
13322;DHT22;6730;46.248;6.930;2023-10-19T13:00:53;18.70;99.90
13322;DHT22;6730;46.248;6.930;2023-10-19T13:03:20;18.90;99.90
13322;DHT22;6730;46.248;6.930;2023-10-19T13:05:47;19.10;99.90
13322;DHT22;6730;46.248;6.930;2023-10-19T13:08:15;19.00;99.90
13322;DHT22;6730;46.248;6.930;2023-10-19T13:10:47;18.10;99.90
13322;DHT22;6730;46.248;6.930;2023-10-19T13:13:14;17.70;99.90
13322;DHT22;6730;46.248;6.930;2023-10-19T13:15:42;17.70;99.90
13322;DHT22;6730;46.248;6.930;2023-10-19T13:18:10;17.50;99.90
13322;DHT22;6730;46.248;6.930;2023-10-19T13:20:39;17.60;99.90
13322;DHT22;6730;46.248;6.930;2023-10-19T13:23:09;17.60;99.90
13322;DHT22;6730;46.248;6.930;2023-10-19T13:25:41;17.60;99.90
13322;DHT22;6730;46.248;6.930;2023-10-19T13:28:12;17.60;99.90
13322;DHT22;6730;46.248;6.930;2023-10-19T13:30:39;17.40;99.90
13322;DHT22;6730;46.248;6.930;2023-10-19T13:33:06;17.30;99.90
13322;DHT22;6730;46.248;6.930;2023-10-19T13:35:37;17.00;99.90
13322;DHT22;6730;46.248;6.930;2023-10-19T13:38:10;16.90;99.90
13322;DHT22;6730;46.248;6.930;2023-10-19T13:40:37;17.00;99.90
13322;DHT22;6730;46.248;6.930;2023-10-19T13:43:05;17.30;99.90
13322;DHT22;6730;46.248;6.930;2023-10-19T13:45:32;17.10;99.90
13322;DHT22;6730;46.248;6.930;2023-10-19T13:48:02;16.80;99.90
13322;DHT22;6730;46.248;6.930;2023-10-19T13:50:29;16.60;99.90
13322;DHT22;6730;46.248;6.930;2023-10-19T13:52:55;16.60;99.90
13322;DHT22;6730;46.248;6.930;2023-10-19T13:55:23;16.60;99.90
13322;DHT22;6730;46.248;6.930;2023-10-19T13:57:49;16.70;99.90
13322;DHT22;6730;46.248;6.930;2023-10-19T14:00:16;16.80;99.90
13322;DHT22;6730;46.248;6.930;2023-10-19T14:02:51;16.60;99.90
13322;DHT22;6730;46.248;6.930;2023-10-19T14:05:18;16.40;99.90
13322;DHT22;6730;46.248;6.930;2023-10-19T14:07:53;16.30;99.90
13322;DHT22;6730;46.248;6.930;2023-10-19T14:10:19;16.30;99.90
13322;DHT22;6730;46.248;6.930;2023-10-19T14:12:48;16.10;99.90
13322;DHT22;6730;46.248;6.930;2023-10-19T14:15:18;15.90;99.90
13322;DHT22;6730;46.248;6.930;2023-10-19T14:17:45;15.80;99.90
13322;DHT22;6730;46.248;6.930;2023-10-19T14:20:12;15.80;99.90
13322;DHT22;6730;46.248;6.930;2023-10-19T14:22:45;15.70;99.90
13322;DHT22;6730;46.248;6.930;2023-10-19T14:25:12;15.70;99.90
13322;DHT22;6730;46.248;6.930;2023-10-19T14:27:43;15.70;99.90
13322;DHT22;6730;46.248;6.930;2023-10-19T14:30:16;15.50;99.90
13322;DHT22;6730;46.248;6.930;2023-10-19T14:32:44;15.60;99.90
13322;DHT22;6730;46.248;6.930;2023-10-19T14:35:11;15.80;99.90
13322;DHT22;6730;46.248;6.930;2023-10-19T14:37:45;15.70;99.90
13322;DHT22;6730;46.248;6.930;2023-10-19T14:40:12;15.60;99.90
13322;DHT22;6730;46.248;6.930;2023-10-19T14:42:43;15.70;99.90
13322;DHT22;6730;46.248;6.930;2023-10-19T14:45:09;15.90;99.90
13322;DHT22;6730;46.248;6.930;2023-10-19T14:47:42;15.60;99.90
13322;DHT22;6730;46.248;6.930;2023-10-19T14:50:12;15.30;99.90
13322;DHT22;6730;46.248;6.930;2023-10-19T14:52:44;15.00;99.90
13322;DHT22;6730;46.248;6.930;2023-10-19T14:55:11;15.00;99.90
13322;DHT22;6730;46.248;6.930;2023-10-19T14:57:37;15.10;99.90
13322;DHT22;6730;46.248;6.930;2023-10-19T15:00:08;15.20;99.90
13322;DHT22;6730;46.248;6.930;2023-10-19T15:02:44;15.40;99.90
13322;DHT22;6730;46.248;6.930;2023-10-19T15:05:11;15.30;99.90
13322;DHT22;6730;46.248;6.930;2023-10-19T15:07:48;15.10;99.90
13322;DHT22;6730;46.248;6.930;2023-10-19T15:10:23;14.90;99.90
13322;DHT22;6730;46.248;6.930;2023-10-19T15:12:49;14.90;99.90
13322;DHT22;6730;46.248;6.930;2023-10-19T15:15:15;14.90;99.90
13322;DHT22;6730;46.248;6.930;2023-10-19T15:17:46;15.00;99.90
13322;DHT22;6730;46.248;6.930;2023-10-19T15:20:14;15.30;99.90
13322;DHT22;6730;46.248;6.930;2023-10-19T15:22:43;15.30;99.90
13322;DHT22;6730;46.248;6.930;2023-10-19T15:25:10;15.00;99.90
13322;DHT22;6730;46.248;6.930;2023-10-19T15:27:39;14.80;99.90
13322;DHT22;6730;46.248;6.930;2023-10-19T15:30:05;14.70;99.90
13322;DHT22;6730;46.248;6.930;2023-10-19T15:32:35;14.70;99.90
13322;DHT22;6730;46.248;6.930;2023-10-19T15:35:01;14.80;99.90
13322;DHT22;6730;46.248;6.930;2023-10-19T15:37:27;14.60;99.90
13322;DHT22;6730;46.248;6.930;2023-10-19T15:39:53;14.50;99.90
13322;DHT22;6730;46.248;6.930;2023-10-19T15:42:20;14.50;99.90
13322;DHT22;6730;46.248;6.930;2023-10-19T15:44:47;14.50;99.90
13322;DHT22;6730;46.248;6.930;2023-10-19T15:47:17;14.50;99.90
13322;DHT22;6730;46.248;6.930;2023-10-19T15:49:51;14.60;99.90
13322;DHT22;6730;46.248;6.930;2023-10-19T15:52:24;14.60;99.90
13322;DHT22;6730;46.248;6.930;2023-10-19T15:54:51;14.50;99.90
13322;DHT22;6730;46.248;6.930;2023-10-19T15:57:20;14.50;99.90
13322;DHT22;6730;46.248;6.930;2023-10-19T15:59:46;14.60;99.90
13322;DHT22;6730;46.248;6.930;2023-10-19T16:02:14;14.60;99.90
13322;DHT22;6730;46.248;6.930;2023-10-19T16:04:41;14.50;99.90
13322;DHT22;6730;46.248;6.930;2023-10-19T16:07:12;14.30;99.90
13322;DHT22;6730;46.248;6.930;2023-10-19T16:09:38;14.20;99.90